Clarkston, MI

9:53 AM EDT on April 21, 2015 (GMT -0400)
Rural St | | Change Station
CLOSE
Current Station
Personal Weather Station
Location: Waterford, MI
Elevation: 1038 ft
Nearby Weather Stations

Elev 1038 ft 42.70 °N, 83.40 °W | Updated 9 seconds ago

Overcast
Overcast
43.3 °F
Feels Like 40 °F
N
6.0
Wind Variable Wind from WSW
Gusts 13.0 mph

Today
High -- | Low -- °F
--% Chance of Precip.
Yesterday
High -- | Low -- °F
Precip. -- in
6:43 AM 8:22 PM
Waxing Crescent, 10% visible
Pressure 29.55 in
Visibility 10.0 miles
Clouds Scattered Clouds 3400 ft
Mostly Cloudy 4200 ft
Mostly Cloudy 6500 ft
Windchill 40 °F
Dew Point 33 °F
Humidity 67%
Rainfall 0.00 in
Snow Depth Not available.
UV 1 out of 12
Pollen 10.20 out of 12
Air Quality Not available.
Flu Activity Regional
METAR KPTK 211253Z 23013G21KT 10SM SCT034 BKN042 BKN065 06/00 A2953 RMK AO2 RAB31E44 SLP005 P0000 T00610000

More Conditions Fewer Conditions

Pressure 29.55 in
Visibility 10.0 miles
Clouds Scattered Clouds 3400 ft
Mostly Cloudy 4200 ft
Mostly Cloudy 6500 ft
Windchill 40 °F
Dew Point 33 °F
Humidity 67%
Rainfall 0.00 in
Snow Depth Not available.
UV 1 out of 12
Pollen 10.20 out of 12
Air Quality Not available.
Flu Activity Regional
METAR KPTK 211253Z 23013G21KT 10SM SCT034 BKN042 BKN065 06/00 A2953 RMK AO2 RAB31E44 SLP005 P0000 T00610000

More Conditions Fewer Conditions

10-Day Weather Forecast

Almanac

Astronomy

Apr. 21, 2015 Rise Set
Actual Time
Civil Twilight
Nautical Twilight
Astronomical Twilight
Moon
Length of Visible Light
Length of Day
Tomorrow will be .
, % of the Moon is Illuminated

Today's Extremes

State Highs State Lows

Community

WunderPhotos

Upload Photos

1,815,383 photos uploaded!

WunderBlogs® & News

Nearby

Air Quality

  Air Quality AQ Index Pollutant
Not available.

Snow Depth

Station Depth Elevation

Earthquake Activity

City Distance Mag. Time & Date
Minimum magnitude displayed is 2.5.

Coastal Water Temperatures

Place Temperature

Stations

Nearby Weather Stations

Station Location Temp. Windchill Dew Point Humidity Wind Precip. Elev Updated Type